createdAt,value
2019-02-10T00:02:24.185Z,3.78
2019-02-10T00:04:53.891Z,3.56
2019-02-10T00:07:23.518Z,3.55
2019-02-10T00:09:53.202Z,3.57
2019-02-10T00:12:22.987Z,3.52
2019-02-10T00:14:52.605Z,3.50
2019-02-10T00:17:22.339Z,3.54
2019-02-10T00:19:51.970Z,3.54
2019-02-10T00:22:21.633Z,3.56
2019-02-10T00:24:51.273Z,3.59
2019-02-10T00:27:20.955Z,3.61
2019-02-10T00:29:50.610Z,3.68
2019-02-10T00:32:20.464Z,3.70
2019-02-10T00:34:50.127Z,3.83
2019-02-10T00:37:19.714Z,3.92
2019-02-10T00:39:49.343Z,3.83
2019-02-10T00:42:18.920Z,3.75
2019-02-10T00:44:48.589Z,3.59
2019-02-10T00:47:18.253Z,3.53
2019-02-10T00:49:47.907Z,3.45
2019-02-10T00:52:17.523Z,3.59
2019-02-10T00:54:47.204Z,3.16
2019-02-10T00:57:16.819Z,2.99
2019-02-10T00:59:46.411Z,2.89
2019-02-10T01:02:16.080Z,2.82
2019-02-10T01:04:45.703Z,2.72
2019-02-10T01:07:15.313Z,2.72
2019-02-10T01:09:45.020Z,2.79
2019-02-10T01:12:14.808Z,2.75
2019-02-10T01:14:44.387Z,2.86
2019-02-10T01:17:14.034Z,2.65
2019-02-10T01:19:43.653Z,2.31
2019-02-10T01:22:13.283Z,2.34
2019-02-10T01:24:42.919Z,2.05
2019-02-10T01:27:12.521Z,1.98
2019-02-10T01:29:42.123Z,1.97
2019-02-10T01:32:11.790Z,2.00
2019-02-10T01:34:41.435Z,2.06
2019-02-10T01:37:11.082Z,2.13
2019-02-10T01:39:40.752Z,2.01
2019-02-10T01:42:10.424Z,2.18
2019-02-10T01:44:40.019Z,2.25
2019-02-10T01:47:09.730Z,2.24
2019-02-10T01:49:39.319Z,2.14
2019-02-10T01:52:08.928Z,2.28
2019-02-10T01:54:38.650Z,2.26
2019-02-10T01:57:08.302Z,2.18
2019-02-10T01:59:37.936Z,2.21
2019-02-10T02:02:07.727Z,2.65
2019-02-10T02:04:37.358Z,2.32
2019-02-10T02:07:06.977Z,2.13
2019-02-10T02:09:36.609Z,2.18
2019-02-10T02:12:06.333Z,2.07
2019-02-10T02:14:35.920Z,2.04
2019-02-10T02:17:05.612Z,1.95
2019-02-10T02:19:35.224Z,2.02
2019-02-10T02:22:04.919Z,2.13
2019-02-10T02:24:34.548Z,2.21
2019-02-10T02:27:04.210Z,2.37
2019-02-10T02:29:33.814Z,2.43
2019-02-10T02:32:03.395Z,2.60
2019-02-10T02:34:33.012Z,2.38
2019-02-10T02:37:07.920Z,2.48
2019-02-10T02:39:33.987Z,2.39
2019-02-10T02:42:03.641Z,2.38
2019-02-10T02:44:33.400Z,2.52
2019-02-10T02:47:03.024Z,2.69
2019-02-10T02:49:32.648Z,2.56
2019-02-10T02:52:02.301Z,2.68
2019-02-10T02:54:31.962Z,2.54
2019-02-10T02:57:01.594Z,2.72
2019-02-10T02:59:31.272Z,2.82
2019-02-10T03:02:00.868Z,2.94
2019-02-10T03:04:30.585Z,2.93
2019-02-10T03:07:00.317Z,2.95
2019-02-10T03:09:29.980Z,2.86
2019-02-10T03:11:59.589Z,2.72
2019-02-10T03:14:29.268Z,2.89
2019-02-10T03:16:58.900Z,2.78
2019-02-10T03:19:28.532Z,2.90
2019-02-10T03:21:58.219Z,2.89
2019-02-10T03:24:27.861Z,2.83
2019-02-10T03:26:57.545Z,2.65
2019-02-10T03:29:27.241Z,2.54
2019-02-10T03:31:56.879Z,2.59
2019-02-10T03:34:26.519Z,2.59
2019-02-10T03:36:56.180Z,2.56
2019-02-10T03:39:25.791Z,2.48
2019-02-10T03:41:55.406Z,2.57
2019-02-10T03:44:25.052Z,2.51
2019-02-10T03:46:54.656Z,2.57
2019-02-10T03:49:24.359Z,2.56
2019-02-10T03:51:54.018Z,2.56
2019-02-10T03:54:23.740Z,2.55
2019-02-10T03:56:53.399Z,2.51
2019-02-10T03:59:23.096Z,2.59
2019-02-10T04:01:52.758Z,2.58
2019-02-10T04:04:22.443Z,2.58
2019-02-10T04:06:52.109Z,2.41
2019-02-10T04:09:21.746Z,2.39
2019-02-10T04:11:51.401Z,2.34
2019-02-10T04:14:21.073Z,2.29
2019-02-10T04:16:50.717Z,2.28
2019-02-10T04:19:20.392Z,2.24
2019-02-10T04:21:50.053Z,2.42
2019-02-10T04:24:19.742Z,2.38
2019-02-10T04:26:49.352Z,2.33
2019-02-10T04:29:18.991Z,2.32
2019-02-10T04:31:48.661Z,2.39
2019-02-10T04:34:18.334Z,2.45
2019-02-10T04:36:48.043Z,2.40
2019-02-10T04:39:17.669Z,2.45
2019-02-10T04:41:47.322Z,2.49
2019-02-10T04:44:17.024Z,2.53
2019-02-10T04:46:46.603Z,2.55
2019-02-10T04:49:16.226Z,2.64
2019-02-10T04:51:45.866Z,2.53
2019-02-10T04:54:15.467Z,2.43
2019-02-10T04:56:45.153Z,2.49
2019-02-10T04:59:14.827Z,2.45
2019-02-10T05:01:44.450Z,2.45
2019-02-10T05:04:14.043Z,2.64
2019-02-10T05:06:43.697Z,2.80
2019-02-10T05:09:13.372Z,3.03
2019-02-10T05:11:42.982Z,3.33
2019-02-10T05:14:12.609Z,2.85
2019-02-10T05:16:42.274Z,3.55
2019-02-10T05:19:11.870Z,3.31
2019-02-10T05:21:43.549Z,2.71
2019-02-10T05:24:13.241Z,2.45
2019-02-10T05:26:42.876Z,2.20
2019-02-10T05:29:12.528Z,2.00
2019-02-10T05:31:42.133Z,1.85
2019-02-10T05:34:11.786Z,1.85
2019-02-10T05:36:41.421Z,2.14
2019-02-10T05:39:11.028Z,1.62
2019-02-10T05:41:40.695Z,1.49
2019-02-10T05:44:10.399Z,1.49
2019-02-10T05:46:40.057Z,1.50
2019-02-10T05:49:09.710Z,1.87
2019-02-10T05:51:39.360Z,1.84
2019-02-10T05:54:09.008Z,1.74
2019-02-10T05:56:38.647Z,1.54
2019-02-10T05:59:08.259Z,1.54
2019-02-10T06:02:03.818Z,2.26
2019-02-10T06:04:35.418Z,3.05
2019-02-10T06:07:08.470Z,2.44
2019-02-10T06:09:38.154Z,3.26
2019-02-10T06:12:07.754Z,3.54
2019-02-10T06:14:37.394Z,3.10
2019-02-10T06:17:07.001Z,2.74
2019-02-10T06:19:36.640Z,3.16
2019-02-10T06:22:06.288Z,2.58
2019-02-10T06:24:35.905Z,2.59
2019-02-10T06:27:05.543Z,2.58
2019-02-10T06:29:35.172Z,2.84
2019-02-10T06:32:04.858Z,2.83
2019-02-10T06:34:34.516Z,2.99
2019-02-10T06:37:04.116Z,2.87
2019-02-10T06:39:33.776Z,2.52
2019-02-10T06:42:03.417Z,2.96
2019-02-10T06:44:33.053Z,2.71
2019-02-10T06:47:02.729Z,2.16
2019-02-10T06:49:32.302Z,1.97
2019-02-10T06:52:01.928Z,2.35
2019-02-10T06:54:31.612Z,2.57
2019-02-10T06:57:01.273Z,2.68
2019-02-10T06:59:40.138Z,2.47
2019-02-10T07:02:29.395Z,2.25
2019-02-10T07:04:59.033Z,2.18
2019-02-10T07:07:28.789Z,2.02
2019-02-10T07:09:58.421Z,2.98
2019-02-10T07:12:49.561Z,3.39
2019-02-10T07:16:01.629Z,3.78
2019-02-10T07:19:10.715Z,3.48
2019-02-10T07:21:44.148Z,4.01
2019-02-10T07:24:36.217Z,4.43
2019-02-10T07:27:22.091Z,3.98
2019-02-10T07:30:34.882Z,3.91
2019-02-10T07:33:28.007Z,3.37
2019-02-10T07:36:10.565Z,4.27
2019-02-10T07:39:18.355Z,5.00
2019-02-10T07:42:28.975Z,4.85
2019-02-10T07:45:21.411Z,4.28
2019-02-10T07:48:26.626Z,4.38
2019-02-10T07:51:35.572Z,5.02
2019-02-10T07:54:41.983Z,5.22
2019-02-10T07:57:49.350Z,5.19
2019-02-10T08:00:47.932Z,4.54
2019-02-10T08:04:07.062Z,4.25
2019-02-10T08:07:05.987Z,5.03
2019-02-10T08:09:58.716Z,4.62
2019-02-10T08:12:59.426Z,4.77
2019-02-10T08:16:14.884Z,4.93
2019-02-10T08:19:33.274Z,4.96
2019-02-10T08:22:16.195Z,4.85
2019-02-10T08:25:17.593Z,5.36
2019-02-10T08:28:27.896Z,5.69
2019-02-10T08:31:30.404Z,6.24
2019-02-10T08:34:22.655Z,6.43
2019-02-10T08:37:37.348Z,6.16
2019-02-10T08:41:06.325Z,6.05
2019-02-10T08:44:02.743Z,6.03
2019-02-10T08:47:33.783Z,6.02
2019-02-10T08:50:14.983Z,6.02
2019-02-10T08:53:08.334Z,5.97
2019-02-10T08:55:37.980Z,6.40
2019-02-10T08:58:07.626Z,6.71
2019-02-10T09:00:37.293Z,7.10
2019-02-10T09:03:07.005Z,7.31
2019-02-10T09:05:36.651Z,7.55
2019-02-10T09:08:06.267Z,7.75
2019-02-10T09:10:35.939Z,8.09
2019-02-10T09:13:05.542Z,8.01
2019-02-10T09:15:35.200Z,8.24
2019-02-10T09:18:04.874Z,7.37
2019-02-10T09:20:34.463Z,7.58
2019-02-10T09:23:04.087Z,7.90
2019-02-10T09:25:33.790Z,7.57
2019-02-10T09:28:03.413Z,7.84
2019-02-10T09:30:33.005Z,7.72
2019-02-10T09:33:02.682Z,7.71
2019-02-10T09:35:32.459Z,7.62
2019-02-10T09:38:02.058Z,8.13
2019-02-10T09:40:31.705Z,8.61
2019-02-10T09:43:01.294Z,7.67
2019-02-10T09:45:31.024Z,8.13
2019-02-10T09:48:00.651Z,7.68
2019-02-10T09:50:30.260Z,8.17
2019-02-10T09:52:59.910Z,7.91
2019-02-10T09:55:29.614Z,8.45
2019-02-10T09:57:59.247Z,8.45
2019-02-10T10:00:28.956Z,7.93
2019-02-10T10:02:58.665Z,7.75
2019-02-10T10:05:28.343Z,8.28
2019-02-10T10:07:57.983Z,8.59
2019-02-10T10:10:27.600Z,8.94
2019-02-10T10:12:57.208Z,9.09
2019-02-10T10:15:26.826Z,9.78
2019-02-10T10:17:56.478Z,9.31
2019-02-10T10:20:26.115Z,9.34
2019-02-10T10:22:55.727Z,9.19
2019-02-10T10:25:25.364Z,9.36
2019-02-10T10:27:54.945Z,9.79
2019-02-10T10:30:24.536Z,10.14
2019-02-10T10:32:54.251Z,10.10
2019-02-10T10:35:23.843Z,9.83
2019-02-10T10:37:53.449Z,9.64
2019-02-10T10:40:23.092Z,9.83
2019-02-10T10:42:52.685Z,9.96
2019-02-10T10:45:22.290Z,9.89
2019-02-10T10:47:51.950Z,10.10
2019-02-10T10:50:21.540Z,10.62
2019-02-10T10:52:51.149Z,10.29
2019-02-10T10:55:20.783Z,10.24
2019-02-10T10:57:50.358Z,10.25
2019-02-10T11:00:20.057Z,9.93
2019-02-10T11:02:49.709Z,9.74
2019-02-10T11:05:19.348Z,9.94
2019-02-10T11:07:48.951Z,10.51
2019-02-10T11:10:18.622Z,10.89
2019-02-10T11:12:48.219Z,11.31
2019-02-10T11:15:17.876Z,11.31
2019-02-10T11:17:47.587Z,11.76
2019-02-10T11:20:17.235Z,11.48
2019-02-10T11:22:46.863Z,11.51
2019-02-10T11:25:16.539Z,10.49
2019-02-10T11:27:46.161Z,11.10
2019-02-10T11:30:15.827Z,11.13
2019-02-10T11:32:45.625Z,10.64
2019-02-10T11:35:15.245Z,11.03
2019-02-10T11:37:44.982Z,11.10
2019-02-10T11:40:14.718Z,10.90
2019-02-10T11:42:44.441Z,11.03
2019-02-10T11:45:14.153Z,11.03
2019-02-10T11:47:43.817Z,10.89
2019-02-10T11:50:13.583Z,11.75
2019-02-10T11:52:43.220Z,12.05
2019-02-10T11:55:13.086Z,11.86
2019-02-10T11:57:42.731Z,11.71
2019-02-10T12:00:13.144Z,12.24
2019-02-10T12:02:42.916Z,11.53
2019-02-10T12:05:12.870Z,11.89
2019-02-10T12:07:42.548Z,12.24
2019-02-10T12:10:12.373Z,11.18
2019-02-10T12:12:41.985Z,11.73
2019-02-10T12:15:12.027Z,12.19
2019-02-10T12:17:41.780Z,12.06
2019-02-10T12:20:11.642Z,12.20
2019-02-10T12:22:48.587Z,11.65
2019-02-10T12:25:12.808Z,11.49
2019-02-10T12:27:42.417Z,11.73
2019-02-10T12:30:13.681Z,11.72
2019-02-10T12:32:43.538Z,11.89
2019-02-10T12:35:13.355Z,12.08
2019-02-10T12:37:42.949Z,12.67
2019-02-10T12:40:12.802Z,12.27
2019-02-10T12:42:42.423Z,12.19
2019-02-10T12:45:12.436Z,12.70
2019-02-10T12:47:42.103Z,12.56
2019-02-10T12:50:12.116Z,12.38
2019-02-10T12:52:41.819Z,12.63
2019-02-10T12:55:11.651Z,12.68
2019-02-10T12:57:41.365Z,12.74
2019-02-10T13:00:13.430Z,11.78
2019-02-10T13:02:43.264Z,11.10
2019-02-10T13:05:13.169Z,10.77
2019-02-10T13:07:42.789Z,10.32
2019-02-10T13:10:13.054Z,10.14
2019-02-10T13:12:42.655Z,11.11
2019-02-10T13:15:12.411Z,11.21
2019-02-10T13:17:42.134Z,11.75
2019-02-10T13:20:11.764Z,12.36
2019-02-10T13:22:41.482Z,12.50
2019-02-10T13:25:11.219Z,12.34
2019-02-10T13:27:40.806Z,13.00
2019-02-10T13:30:12.254Z,12.19
2019-02-10T13:32:41.864Z,11.81
2019-02-10T13:35:11.586Z,10.83
2019-02-10T13:37:41.286Z,10.50
2019-02-10T13:40:16.699Z,10.82
2019-02-10T13:42:45.448Z,11.13
2019-02-10T13:45:15.200Z,11.32
2019-02-10T13:47:44.903Z,11.38
2019-02-10T13:50:15.692Z,11.71
2019-02-10T13:52:45.372Z,12.13
2019-02-10T13:55:15.155Z,11.62
2019-02-10T13:57:44.753Z,11.85
2019-02-10T14:00:16.458Z,12.13
2019-02-10T14:02:46.135Z,11.68
2019-02-10T14:05:15.958Z,11.92
2019-02-10T14:07:45.853Z,12.16
2019-02-10T14:10:15.732Z,12.19
2019-02-10T14:12:45.351Z,12.63
2019-02-10T14:15:15.128Z,12.43
2019-02-10T14:17:44.773Z,12.29
2019-02-10T14:20:15.892Z,11.84
2019-02-10T14:22:45.503Z,12.47
2019-02-10T14:25:15.270Z,12.55
2019-02-10T14:27:44.858Z,12.76
2019-02-10T14:30:17.003Z,12.01
2019-02-10T14:32:46.922Z,11.30
2019-02-10T14:35:16.688Z,10.69
2019-02-10T14:37:46.311Z,11.34
2019-02-10T14:40:16.047Z,11.92
2019-02-10T14:42:46.261Z,11.53
2019-02-10T14:45:15.996Z,11.91
2019-02-10T14:47:45.709Z,12.00
2019-02-10T14:50:15.794Z,12.19
2019-02-10T14:52:45.407Z,11.98
2019-02-10T14:55:15.090Z,12.32
2019-02-10T14:57:44.834Z,12.12
2019-02-10T15:00:15.511Z,12.25
2019-02-10T15:02:45.280Z,12.24
2019-02-10T15:05:14.994Z,12.40
2019-02-10T15:07:44.649Z,12.72
2019-02-10T15:10:14.762Z,12.87
2019-02-10T15:12:44.487Z,12.02
2019-02-10T15:15:14.276Z,11.80
2019-02-10T15:17:43.929Z,11.33
2019-02-10T15:20:13.642Z,11.20
2019-02-10T15:22:43.244Z,11.07
2019-02-10T15:25:13.059Z,10.61
2019-02-10T15:27:42.693Z,10.64
2019-02-10T15:30:13.109Z,10.65
2019-02-10T15:32:42.867Z,10.47
2019-02-10T15:35:12.700Z,10.46
2019-02-10T15:37:42.334Z,10.60
2019-02-10T15:40:12.177Z,10.72
2019-02-10T15:42:41.762Z,10.80
2019-02-10T15:45:11.631Z,10.86
2019-02-10T15:47:41.351Z,10.87
2019-02-10T15:50:11.362Z,10.86
2019-02-10T15:52:41.065Z,10.80
2019-02-10T15:55:11.085Z,10.73
2019-02-10T15:57:40.675Z,10.76
2019-02-10T16:00:13.482Z,10.61
2019-02-10T16:02:43.176Z,10.66
2019-02-10T16:05:12.898Z,10.56
2019-02-10T16:07:42.525Z,10.57
2019-02-10T16:10:12.681Z,10.60
2019-02-10T16:12:42.280Z,10.51
2019-02-10T16:15:12.310Z,10.08
2019-02-10T16:17:41.978Z,9.75
2019-02-10T16:20:12.793Z,9.56
2019-02-10T16:22:42.449Z,9.41
2019-02-10T16:25:12.462Z,9.26
2019-02-10T16:27:42.069Z,9.11
2019-02-10T16:30:12.718Z,8.99
2019-02-10T16:32:49.538Z,8.83
2019-02-10T16:35:13.766Z,8.81
2019-02-10T16:37:43.416Z,8.83
2019-02-10T16:40:15.332Z,8.85
2019-02-10T16:42:44.938Z,8.96
2019-02-10T16:45:14.673Z,9.08
2019-02-10T16:47:44.329Z,9.18
2019-02-10T16:50:14.031Z,9.13
2019-02-10T16:52:43.658Z,9.03
2019-02-10T16:55:14.039Z,8.85
2019-02-10T16:57:43.653Z,8.77
2019-02-10T17:00:14.366Z,8.61
2019-02-10T17:02:44.010Z,8.50
2019-02-10T17:05:14.016Z,8.45
2019-02-10T17:07:43.797Z,8.29
2019-02-10T17:10:13.811Z,8.24
2019-02-10T17:12:43.446Z,8.30
2019-02-10T17:15:13.306Z,8.38
2019-02-10T17:17:42.943Z,8.37
2019-02-10T17:20:12.797Z,8.34
2019-02-10T17:22:42.591Z,8.35
2019-02-10T17:25:13.785Z,8.53
2019-02-10T17:27:43.375Z,8.60
2019-02-10T17:30:13.910Z,8.33
2019-02-10T17:32:43.558Z,8.38
2019-02-10T17:35:15.592Z,8.41
2019-02-10T17:37:45.250Z,8.48
2019-02-10T17:40:36.486Z,8.59
2019-02-10T17:43:06.137Z,8.37
2019-02-10T17:45:35.733Z,8.17
2019-02-10T17:48:05.385Z,7.98
2019-02-10T17:50:35.055Z,7.92
2019-02-10T17:53:04.740Z,8.04
2019-02-10T17:55:34.384Z,8.08
2019-02-10T17:58:04.046Z,8.09
2019-02-10T18:00:38.067Z,7.96
2019-02-10T18:03:09.027Z,8.00
2019-02-10T18:05:38.756Z,8.00
2019-02-10T18:08:08.441Z,7.92
2019-02-10T18:10:38.085Z,8.04
2019-02-10T18:13:07.748Z,7.98
2019-02-10T18:16:05.058Z,8.06
2019-02-10T18:19:05.852Z,7.94
2019-02-10T18:21:52.583Z,8.15
2019-02-10T18:24:44.205Z,8.24
2019-02-10T18:27:47.595Z,8.13
2019-02-10T18:30:38.698Z,8.02
2019-02-10T18:33:33.057Z,7.94
2019-02-10T18:36:33.819Z,7.91
2019-02-10T18:39:23.183Z,8.02
2019-02-10T18:41:59.661Z,8.01
2019-02-10T18:44:57.208Z,8.17
2019-02-10T18:47:44.061Z,8.04
2019-02-10T18:50:38.606Z,8.02
2019-02-10T18:53:27.077Z,7.98
2019-02-10T18:56:14.373Z,7.92
2019-02-10T18:59:01.340Z,8.05
2019-02-10T19:01:59.075Z,8.09
2019-02-10T19:04:45.918Z,8.01
2019-02-10T19:07:32.887Z,8.13
2019-02-10T19:10:08.987Z,8.13
2019-02-10T19:12:57.829Z,8.06
2019-02-10T19:15:38.477Z,7.97
2019-02-10T19:18:23.097Z,7.97
2019-02-10T19:21:14.624Z,7.99
2019-02-10T19:24:02.245Z,7.94
2019-02-10T19:26:56.844Z,8.06
2019-02-10T19:29:43.781Z,8.13
2019-02-10T19:32:41.162Z,7.94
2019-02-10T19:35:31.939Z,8.04
2019-02-10T19:38:20.461Z,7.98
2019-02-10T19:41:24.060Z,8.12
2019-02-10T19:44:18.169Z,8.12
2019-02-10T19:47:06.699Z,7.87
2019-02-10T19:50:01.292Z,8.03
2019-02-10T19:52:42.993Z,8.06
2019-02-10T19:55:30.339Z,8.10
2019-02-10T19:58:21.850Z,8.15
2019-02-10T20:01:13.206Z,8.20
2019-02-10T20:04:19.873Z,7.79
2019-02-10T20:06:59.941Z,7.41
2019-02-10T20:09:42.654Z,7.17
2019-02-10T20:12:35.461Z,6.99
2019-02-10T20:15:15.095Z,7.02
2019-02-10T20:18:12.384Z,6.99
2019-02-10T20:21:09.900Z,6.66
2019-02-10T20:23:57.403Z,6.76
2019-02-10T20:27:01.159Z,6.72
2019-02-10T20:29:46.600Z,6.69
2019-02-10T20:32:35.158Z,6.71
2019-02-10T20:35:38.658Z,6.65
2019-02-10T20:38:30.107Z,6.98
2019-02-10T20:41:18.572Z,7.11
2019-02-10T20:43:58.276Z,7.80
2019-02-10T20:46:47.877Z,7.63
2019-02-10T20:49:40.486Z,7.53
2019-02-10T20:52:26.242Z,7.28
2019-02-10T20:55:02.384Z,7.21
2019-02-10T20:57:41.109Z,7.24
2019-02-10T21:00:29.810Z,7.48
2019-02-10T21:03:30.206Z,7.50
2019-02-10T21:06:30.889Z,7.35
2019-02-10T21:09:24.922Z,7.73
2019-02-10T21:12:20.170Z,7.64
2019-02-10T21:15:00.828Z,7.51
2019-02-10T21:17:49.342Z,7.69
2019-02-10T21:20:37.847Z,7.70
2019-02-10T21:23:23.613Z,7.66
2019-02-10T21:25:58.733Z,7.80
2019-02-10T21:28:46.032Z,7.84
2019-02-10T21:31:35.819Z,7.77
2019-02-10T21:34:30.272Z,7.59
2019-02-10T21:37:14.129Z,7.65
2019-02-10T21:40:08.534Z,7.52
2019-02-10T21:42:52.066Z,7.42
2019-02-10T21:45:40.519Z,7.27
2019-02-10T21:48:23.498Z,7.33
2019-02-10T21:50:53.173Z,7.31
2019-02-10T21:53:22.960Z,7.31
2019-02-10T21:55:52.604Z,7.41
2019-02-10T21:58:22.270Z,7.51
2019-02-10T22:00:52.006Z,7.55
2019-02-10T22:03:21.599Z,7.29
2019-02-10T22:05:51.289Z,7.61
2019-02-10T22:08:20.942Z,7.55
2019-02-10T22:10:50.521Z,7.31
2019-02-10T22:13:20.204Z,7.37
2019-02-10T22:15:49.849Z,7.34
2019-02-10T22:18:19.497Z,7.21
2019-02-10T22:20:49.122Z,7.17
2019-02-10T22:23:18.762Z,7.21
2019-02-10T22:25:48.349Z,7.10
2019-02-10T22:28:18.011Z,6.89
2019-02-10T22:30:47.698Z,6.79
2019-02-10T22:33:17.292Z,6.72
2019-02-10T22:35:46.890Z,6.93
2019-02-10T22:38:16.578Z,7.08
2019-02-10T22:40:46.180Z,7.16
2019-02-10T22:43:15.772Z,7.27
2019-02-10T22:45:45.424Z,7.15
2019-02-10T22:48:15.130Z,7.26
2019-02-10T22:50:44.734Z,7.31
2019-02-10T22:53:14.379Z,7.30
2019-02-10T22:55:43.983Z,7.37
2019-02-10T22:58:13.594Z,7.37
2019-02-10T23:00:51.972Z,7.33
2019-02-10T23:03:21.645Z,7.23
2019-02-10T23:05:51.256Z,7.31
2019-02-10T23:08:21.020Z,7.46
2019-02-10T23:10:51.992Z,7.33
2019-02-10T23:13:21.717Z,7.38
2019-02-10T23:15:51.416Z,7.53
2019-02-10T23:18:20.995Z,7.61
2019-02-10T23:20:50.621Z,7.27
2019-02-10T23:23:20.260Z,7.02
2019-02-10T23:25:49.863Z,6.84
2019-02-10T23:28:19.493Z,6.82
2019-02-10T23:30:49.145Z,6.68
2019-02-10T23:33:18.782Z,6.72
2019-02-10T23:35:48.415Z,6.86
2019-02-10T23:38:18.053Z,6.85
2019-02-10T23:40:47.707Z,6.73
2019-02-10T23:43:17.392Z,6.03
2019-02-10T23:45:47.072Z,6.17
2019-02-10T23:48:16.734Z,6.23
2019-02-10T23:50:46.372Z,6.05
2019-02-10T23:53:16.027Z,6.22
2019-02-10T23:55:45.626Z,6.39
2019-02-10T23:58:15.298Z,6.55
